Portada
METAR-TAF:

METAR-TAF

Aeroports :

Fort Richardson, Alaska, Estats Units d'Amèrica

latitud: 61-15-45N, longitud: 149-39-17W, altitud: 115 m

Observació

L'informe es va fer fa 1 hora i 6 minuts, a les 20:58 UTC
Vent 3 kt del Nord-Est
Temperatura -14°C
Humitat 92%
Pressió 1009 hPa
Visibilitat: 11.3 km
Cel cobert a una alçada de 400 ft
(lleu) gel granulat

METAR: PAFR 052058Z AUTO 05003KT 7SM -PL OVC004 M14/M15 A2979 RMK AO2 SLP104 P0000 60000 T11381153 57005 FZRANO $

Hora: 13:04 (22:04 UTC)


TAF: manca

Observacions i pronòstics meteorològics de més de 4000 aeroports (METAR i TAF).

Les estacions disponibles són els punts grocs i vermells al mapa.

Posi el ratolí al punt desitjat per veure el nom de l'estació.

Feu clic per veure les observacions i els pronòstics meteorològics.

Per canviar el mapa: feu clic els botons verds amb una creu de color negre per apropar; al botó verd amb un guió per allunyar la imatge; o en les fletxes verdes per a mapes adjacents.


METAR-TAF: